Time;durP1;ratioP1;P1;durP2;ratioP2;P2;SDS_P1;SDS_P2;PMS_P1;PMS_P2;Temp;Humidity;BMP_temperature;BMP_pressure;BME280_temperature;BME280_humidity;BME280_pressure;Samples;Min_cycle;Max_cycle;Signal;HPM_P1;HPM_P2
2023/04/19 00:01:46;;;;;;;0.30;0.30;;;;;;;;;;5059228;28;20214;-93
2023/04/19 00:04:22;;;;;;;0.10;0.10;;;;;;;;;;5073477;28;20259;-93
2023/04/19 00:06:52;;;;;;;1.20;0.40;;;;;;;;;;5073785;28;20192;-93
2023/04/19 00:09:36;;;;;;;0.30;0.20;;;;;;;;;;5068758;28;20195;-95
2023/04/19 00:12:21;;;;;;;0.20;0.20;;;;;;;;;;5034868;28;20597;-95
2023/04/19 00:14:54;;;;;;;0.10;0.10;;;;;;;;;;5069998;28;20224;-95
2023/04/19 00:17:30;;;;;;;0.20;0.20;;;;;;;;;;5075469;28;20241;-93
2023/04/19 00:20:15;;;;;;;0.20;0.20;;;;;;;;;;5076089;28;20187;-93
2023/04/19 00:23:03;;;;;;;0.13;0.13;;;;;;;;;;5075801;28;20204;-94
2023/04/19 00:25:38;;;;;;;0.20;0.20;;;;;;;;;;5074934;28;20199;-94
2023/04/19 00:30:54;;;;;;;0.10;0.10;;;;;;;;;;5045961;28;20205;-93
2023/04/19 00:36:11;;;;;;;0.13;0.13;;;;;;;;;;5058765;28;20206;-93
2023/04/19 00:38:53;;;;;;;0.40;0.37;;;;;;;;;;5060910;28;20230;-94
2023/04/19 00:41:22;;;;;;;0.20;0.20;;;;;;;;;;5063529;28;20279;-94
2023/04/19 00:43:57;;;;;;;0.27;0.20;;;;;;;;;;5070926;28;20191;-93
2023/04/19 00:46:29;;;;;;;0.20;0.20;;;;;;;;;;5069496;28;20196;-93
2023/04/19 00:49:05;;;;;;;0.10;0.10;;;;;;;;;;5061100;28;20210;-94
2023/04/19 00:51:43;;;;;;;0.07;0.07;;;;;;;;;;5059145;28;20302;-94
2023/04/19 00:54:41;;;;;;;0.40;0.40;;;;;;;;;;5058871;28;20202;-93
2023/04/19 00:57:25;;;;;;;0.60;0.60;;;;;;;;;;5058221;28;20204;-93
2023/04/19 01:03:04;;;;;;;4.20;0.23;;;;;;;;;;5056218;28;20259;-93
2023/04/19 01:05:35;;;;;;;0.20;0.20;;;;;;;;;;5058434;28;20206;-94
2023/04/19 01:08:11;;;;;;;0.20;0.20;;;;;;;;;;5056825;28;20292;-95
2023/04/19 01:10:45;;;;;;;0.10;0.10;;;;;;;;;;5058368;28;20226;-94
2023/04/19 01:13:33;;;;;;;0.10;0.10;;;;;;;;;;5059975;28;20254;-94
2023/04/19 01:16:09;;;;;;;0.00;0.00;;;;;;;;;;5060196;28;20201;-93
2023/04/19 01:18:39;;;;;;;0.13;0.07;;;;;;;;;;5062082;28;20290;-94
2023/04/19 01:21:18;;;;;;;0.57;0.40;;;;;;;;;;5062821;28;20206;-96
2023/04/19 01:24:05;;;;;;;0.23;0.13;;;;;;;;;;5061541;28;20320;-94
2023/04/19 01:26:38;;;;;;;0.20;0.20;;;;;;;;;;5059599;28;20243;-93
2023/04/19 01:29:07;;;;;;;0.20;0.20;;;;;;;;;;5058993;28;20298;-94
2023/04/19 01:31:38;;;;;;;0.80;0.37;;;;;;;;;;5065262;28;20231;-93
2023/04/19 01:34:21;;;;;;;0.20;0.10;;;;;;;;;;5074808;28;20201;-93
2023/04/19 01:37:04;;;;;;;0.10;0.10;;;;;;;;;;5075082;28;20181;-92
2023/04/19 01:39:41;;;;;;;0.20;0.20;;;;;;;;;;5167693;22;20519;-94
2023/04/19 01:42:13;;;;;;;0.73;0.10;;;;;;;;;;5075088;28;20187;-93
2023/04/19 01:44:51;;;;;;;1.67;0.80;;;;;;;;;;5074707;28;20298;-92
2023/04/19 01:47:37;;;;;;;0.47;0.47;;;;;;;;;;5074670;28;20274;-93
2023/04/19 01:50:09;;;;;;;1.40;0.43;;;;;;;;;;5064665;28;20195;-93
2023/04/19 01:58:30;;;;;;;0.77;0.77;;;;;;;;;;5060644;28;20206;-95
2023/04/19 02:01:01;;;;;;;0.10;0.03;;;;;;;;;;5063065;28;20233;-95
2023/04/19 02:03:44;;;;;;;0.30;0.30;;;;;;;;;;5062793;28;20199;-94
2023/04/19 02:06:25;;;;;;;0.63;0.50;;;;;;;;;;5064142;28;20219;-93
2023/04/19 02:09:02;;;;;;;0.20;0.20;;;;;;;;;;5064851;28;20199;-94
2023/04/19 02:11:34;;;;;;;0.37;0.37;;;;;;;;;;5065560;28;20234;-93
2023/04/19 02:14:11;;;;;;;0.30;0.30;;;;;;;;;;5067304;28;20445;-95
2023/04/19 02:16:47;;;;;;;0.10;0.10;;;;;;;;;;5070602;28;20215;-94
2023/04/19 02:19:24;;;;;;;0.23;0.23;;;;;;;;;;5069997;28;20198;-93
2023/04/19 02:21:56;;;;;;;0.10;0.10;;;;;;;;;;5067587;28;20213;-94
2023/04/19 02:24:32;;;;;;;0.30;0.30;;;;;;;;;;5066204;28;20203;-94
2023/04/19 02:27:15;;;;;;;0.37;0.33;;;;;;;;;;5066373;28;20187;-95
2023/04/19 02:29:47;;;;;;;0.50;0.40;;;;;;;;;;5064197;28;20206;-93
2023/04/19 02:32:18;;;;;;;0.90;0.53;;;;;;;;;;5064363;28;20213;-95
2023/04/19 02:34:51;;;;;;;0.40;0.40;;;;;;;;;;5068313;28;20263;-92
2023/04/19 02:37:28;;;;;;;0.50;0.40;;;;;;;;;;5056065;28;20196;-92
2023/04/19 02:39:59;;;;;;;0.50;0.50;;;;;;;;;;5073948;28;20234;-95
2023/04/19 02:42:42;;;;;;;0.40;0.33;;;;;;;;;;5180388;22;20266;-92
2023/04/19 02:45:27;;;;;;;0.43;0.43;;;;;;;;;;5051656;28;20222;-93
2023/04/19 02:48:07;;;;;;;0.20;0.20;;;;;;;;;;5047238;28;20719;-94
2023/04/19 02:50:57;;;;;;;1.00;0.77;;;;;;;;;;5041896;28;20196;-92
2023/04/19 02:53:39;;;;;;;0.60;0.30;;;;;;;;;;5040954;28;20227;-94
2023/04/19 02:56:15;;;;;;;0.50;0.50;;;;;;;;;;5041685;28;20357;-94
2023/04/19 02:59:06;;;;;;;0.30;0.30;;;;;;;;;;5044484;28;20211;-93
2023/04/19 03:01:51;;;;;;;0.40;0.40;;;;;;;;;;5057241;28;20211;-93
2023/04/19 03:04:21;;;;;;;0.20;0.20;;;;;;;;;;5042418;28;20290;-94
2023/04/19 03:06:51;;;;;;;0.63;0.63;;;;;;;;;;5053070;28;20195;-91
2023/04/19 03:09:34;;;;;;;0.40;0.40;;;;;;;;;;5056965;28;20172;-93
2023/04/19 03:12:07;;;;;;;0.27;0.27;;;;;;;;;;5056204;28;20215;-94
2023/04/19 03:14:51;;;;;;;0.40;0.40;;;;;;;;;;5053283;28;20192;-91
2023/04/19 03:17:32;;;;;;;0.37;0.30;;;;;;;;;;5052114;28;20203;-95
2023/04/19 03:20:10;;;;;;;0.50;0.50;;;;;;;;;;5044183;28;20200;-94
2023/04/19 03:22:46;;;;;;;0.30;0.30;;;;;;;;;;5042597;28;20223;-94
2023/04/19 03:25:24;;;;;;;0.40;0.40;;;;;;;;;;5041921;28;20206;-95
2023/04/19 03:28:11;;;;;;;0.33;0.33;;;;;;;;;;5040395;28;20242;-93
2023/04/19 03:30:45;;;;;;;0.70;0.60;;;;;;;;;;5039730;28;20204;-94
2023/04/19 03:33:24;;;;;;;3.37;0.70;;;;;;;;;;5041420;28;20231;-92
2023/04/19 03:36:04;;;;;;;2.70;0.50;;;;;;;;;;5042045;28;20207;-93
2023/04/19 03:38:38;;;;;;;0.60;0.60;;;;;;;;;;5036499;28;20277;-94
2023/04/19 03:41:28;;;;;;;0.30;0.20;;;;;;;;;;5040526;28;20199;-94
2023/04/19 03:43:59;;;;;;;0.40;0.40;;;;;;;;;;5040184;28;20211;-93
2023/04/19 03:46:41;;;;;;;0.50;0.50;;;;;;;;;;5039291;28;20200;-94
2023/04/19 03:49:52;;;;;;;1.70;0.40;;;;;;;;;;5040189;28;20204;-94
2023/04/19 03:55:24;;;;;;;0.37;0.37;;;;;;;;;;5039689;28;20449;-93
2023/04/19 03:57:53;;;;;;;0.40;0.40;;;;;;;;;;5040552;28;20225;-93
2023/04/19 04:00:30;;;;;;;0.43;0.40;;;;;;;;;;5039800;28;20333;-94
2023/04/19 04:03:03;;;;;;;0.53;0.50;;;;;;;;;;5041540;28;20200;-93
2023/04/19 04:05:36;;;;;;;0.33;0.33;;;;;;;;;;5041743;28;20216;-95
2023/04/19 04:08:12;;;;;;;1.33;0.30;;;;;;;;;;5040488;28;20267;-95
2023/04/19 04:10:51;;;;;;;0.50;0.50;;;;;;;;;;5040216;28;20220;-95
2023/04/19 04:13:23;;;;;;;0.80;0.80;;;;;;;;;;5040496;28;20242;-94
2023/04/19 04:16:00;;;;;;;0.70;0.70;;;;;;;;;;5041580;28;20289;-93
2023/04/19 04:18:37;;;;;;;0.40;0.40;;;;;;;;;;5040399;28;20263;-93
2023/04/19 04:30:32;;;;;;;0.67;0.67;;;;;;;;;;5019466;28;20200;-94
2023/04/19 04:33:10;;;;;;;2.93;0.97;;;;;;;;;;5027744;28;20261;-95
2023/04/19 04:35:47;;;;;;;1.13;1.00;;;;;;;;;;5066979;28;20194;-96
2023/04/19 04:38:23;;;;;;;0.43;0.43;;;;;;;;;;5073633;28;20198;-93
2023/04/19 04:41:10;;;;;;;1.10;1.00;;;;;;;;;;5073283;28;20193;-91
2023/04/19 04:43:55;;;;;;;3.30;0.73;;;;;;;;;;5075302;28;20205;-94
2023/04/19 04:49:37;;;;;;;0.50;0.50;;;;;;;;;;5068544;28;20195;-93
2023/04/19 04:52:14;;;;;;;0.80;0.80;;;;;;;;;;5067313;28;20205;-93
2023/04/19 05:00:31;;;;;;;;;;;;;;;;;;;;;
2023/04/19 05:03:07;;;;;;;1.17;0.90;;;;;;;;;;5064131;28;20189;-92
2023/04/19 05:05:49;;;;;;;0.50;0.50;;;;;;;;;;5060459;28;20214;-94
2023/04/19 05:08:22;;;;;;;1.07;0.63;;;;;;;;;;5061616;28;20202;-92
2023/04/19 05:11:01;;;;;;;0.30;0.30;;;;;;;;;;5064166;28;20219;-92
2023/04/19 05:13:32;;;;;;;0.93;0.93;;;;;;;;;;5043920;28;20231;-95
2023/04/19 05:16:10;;;;;;;2.77;0.47;;;;;;;;;;5060190;28;20672;-93
2023/04/19 05:18:46;;;;;;;1.43;0.60;;;;;;;;;;5061017;28;20203;-93
2023/04/19 05:21:15;;;;;;;1.10;1.10;;;;;;;;;;5074214;28;20199;-93
2023/04/19 05:23:52;;;;;;;1.10;1.00;;;;;;;;;;5043810;28;20350;-94
2023/04/19 05:27:00;;;;;;;0.40;0.40;;;;;;;;;;5043343;28;20200;-95
2023/04/19 05:29:39;;;;;;;2.20;1.23;;;;;;;;;;5041800;28;20196;-95
2023/04/19 05:32:14;;;;;;;0.70;0.70;;;;;;;;;;5043657;28;20216;-95
2023/04/19 05:35:00;;;;;;;0.53;0.53;;;;;;;;;;5046929;28;20226;-94
2023/04/19 05:37:48;;;;;;;;;;;;;;;;;;;;;
2023/04/19 05:40:19;;;;;;;0.20;0.20;;;;;;;;;;5059804;28;20222;-93
2023/04/19 05:42:48;;;;;;;0.20;0.20;;;;;;;;;;5059824;28;20220;-95
2023/04/19 05:45:24;;;;;;;0.43;0.43;;;;;;;;;;5049873;28;20202;-93
2023/04/19 05:47:59;;;;;;;0.63;0.63;;;;;;;;;;5046450;28;20198;-94
2023/04/19 05:53:55;;;;;;;0.50;0.50;;;;;;;;;;5034417;28;20895;-96
2023/04/19 05:56:48;;;;;;;0.90;0.67;;;;;;;;;;5045364;28;20328;-95
2023/04/19 05:59:42;;;;;;;0.83;0.83;;;;;;;;;;5049724;28;20194;-93
2023/04/19 06:02:26;;;;;;;0.90;0.90;;;;;;;;;;5053587;28;20647;-95
2023/04/19 06:05:09;;;;;;;0.50;0.50;;;;;;;;;;5059367;28;20262;-95
2023/04/19 06:07:55;;;;;;;0.93;0.70;;;;;;;;;;5058581;28;20209;-94
2023/04/19 06:10:48;;;;;;;;;;;;;;;;;;;;;
2023/04/19 06:13:33;;;;;;;0.77;0.77;;;;;;;;;;5135777;22;20229;-92
2023/04/19 06:16:18;;;;;;;0.83;0.80;;;;;;;;;;5046266;28;20188;-94
2023/04/19 06:18:56;;;;;;;0.90;0.67;;;;;;;;;;5090792;28;20231;-93
2023/04/19 06:21:40;;;;;;;1.27;1.00;;;;;;;;;;5095425;28;20186;-95
2023/04/19 06:29:49;;;;;;;1.47;1.37;;;;;;;;;;5078224;28;20210;-92
2023/04/19 06:35:40;;;;;;;0.70;0.70;;;;;;;;;;5050827;28;20184;-92
2023/04/19 06:38:26;;;;;;;0.50;0.50;;;;;;;;;;5059243;28;20211;-95
2023/04/19 06:41:17;;;;;;;0.60;0.57;;;;;;;;;;5551041;23;20259;-90
2023/04/19 06:44:13;;;;;;;0.60;0.60;;;;;;;;;;5038579;28;20212;-93
2023/04/19 06:46:49;;;;;;;0.60;0.60;;;;;;;;;;4979013;28;20211;-92
2023/04/19 06:49:23;;;;;;;1.07;0.77;;;;;;;;;;5032674;28;20195;-93
2023/04/19 06:52:06;;;;;;;1.70;0.70;;;;;;;;;;5079868;22;20226;-90
2023/04/19 06:54:41;;;;;;;0.57;0.57;;;;;;;;;;5058065;28;20415;-93
2023/04/19 06:57:24;;;;;;;1.20;1.10;;;;;;;;;;5058371;28;20282;-93
2023/04/19 06:59:57;;;;;;;0.70;0.70;;;;;;;;;;5058362;28;20189;-93
2023/04/19 07:02:35;;;;;;;1.10;0.90;;;;;;;;;;5058358;28;20233;-92
2023/04/19 07:05:19;;;;;;;0.90;0.90;;;;;;;;;;5058149;28;20172;-93
2023/04/19 07:08:10;;;;;;;2.33;1.77;;;;;;;;;;5070731;28;20211;-93
2023/04/19 07:13:33;;;;;;;0.80;0.77;;;;;;;;;;5065910;28;20709;-94
2023/04/19 07:16:22;;;;;;;1.08;1.08;;;;;;;;;;5066538;28;20209;-94
2023/04/19 07:24:43;;;;;;;0.52;0.47;;;;;;;;;;5062215;28;20258;-93
2023/04/19 07:27:32;;;;;;;0.60;0.60;;;;;;;;;;5065098;28;20227;-95
2023/04/19 07:30:22;;;;;;;1.13;0.80;;;;;;;;;;4963441;28;20277;-94
2023/04/19 07:32:54;;;;;;;0.67;0.67;;;;;;;;;;5066485;28;20205;-95
2023/04/19 07:35:35;;;;;;;0.30;0.27;;;;;;;;;;5076287;28;20180;-93
2023/04/19 07:38:14;;;;;;;0.63;0.63;;;;;;;;;;5070301;28;20218;-96
2023/04/19 07:44:10;;;;;;;0.50;0.50;;;;;;;;;;5106078;23;20261;-92
2023/04/19 07:46:49;;;;;;;0.80;0.80;;;;;;;;;;5041908;28;20195;-96
2023/04/19 07:49:33;;;;;;;1.00;0.70;;;;;;;;;;5041042;28;20202;-93
2023/04/19 07:52:21;;;;;;;0.77;0.77;;;;;;;;;;5042196;28;20222;-94
2023/04/19 07:55:00;;;;;;;0.87;0.87;;;;;;;;;;5041978;28;20669;-95
2023/04/19 07:57:33;;;;;;;2.13;0.50;;;;;;;;;;5039556;28;20608;-94
2023/04/19 08:03:10;;;;;;;1.20;0.87;;;;;;;;;;5019311;28;20235;-94
2023/04/19 08:05:55;;;;;;;0.57;0.57;;;;;;;;;;5023486;28;20237;-93
2023/04/19 08:09:00;;;;;;;0.73;0.67;;;;;;;;;;5041657;28;20290;-92
2023/04/19 08:12:04;;;;;;;1.07;1.00;;;;;;;;;;5004040;28;20225;-94
2023/04/19 08:14:49;;;;;;;1.03;0.60;;;;;;;;;;5000566;28;20266;-93
2023/04/19 08:34:27;;;;;;;1.50;1.40;;;;;;;;;;4983843;28;20231;-94
2023/04/19 08:40:33;;;;;;;0.70;0.70;;;;;;;;;;5008233;28;20238;-94
2023/04/19 08:43:32;;;;;;;;;;;;;;;;;;;;;
2023/04/19 08:46:38;;;;;;;0.80;0.80;;;;;;;;;;5003982;28;20628;-93
2023/04/19 08:55:14;;;;;;;1.73;1.10;;;;;;;;;;4976803;28;20229;-95
2023/04/19 08:57:54;;;;;;;0.53;0.53;;;;;;;;;;5000566;28;20285;-94
2023/04/19 09:03:56;;;;;;;0.65;0.65;;;;;;;;;;4894820;29;20209;-94
2023/04/19 09:06:50;;;;;;;0.60;0.60;;;;;;;;;;4973088;28;20200;-91
2023/04/19 09:18:49;;;;;;;0.55;0.55;;;;;;;;;;4922002;29;20618;-94
2023/04/19 09:25:17;;;;;;;1.05;0.73;;;;;;;;;;4893998;29;20618;-95
2023/04/19 09:28:27;;;;;;;;;;;;;;;;;;;;;
2023/04/19 09:40:28;;;;;;;0.50;0.50;;;;;;;;;;4986889;28;20209;-94
2023/04/19 09:43:07;;;;;;;0.70;0.70;;;;;;;;;;4988822;28;20249;-94
2023/04/19 09:45:56;;;;;;;1.38;0.50;;;;;;;;;;4994561;28;20209;-93
2023/04/19 09:48:48;;;;;;;0.80;0.80;;;;;;;;;;4996401;28;20210;-93
2023/04/19 09:51:28;;;;;;;0.50;0.50;;;;;;;;;;4995585;28;20198;-93
2023/04/19 09:57:18;;;;;;;0.50;0.50;;;;;;;;;;4989894;28;20671;-95
2023/04/19 10:00:17;;;;;;;0.52;0.52;;;;;;;;;;4988771;28;20288;-93
2023/04/19 10:14:59;;;;;;;0.43;0.43;;;;;;;;;;4995726;28;20216;-94
2023/04/19 10:17:57;;;;;;;0.35;0.35;;;;;;;;;;5003933;28;20219;-94
2023/04/19 10:20:56;;;;;;;0.40;0.40;;;;;;;;;;5006323;28;20211;-94
2023/04/19 10:23:31;;;;;;;0.63;0.60;;;;;;;;;;5013996;28;20216;-94
2023/04/19 10:26:06;;;;;;;1.38;0.60;;;;;;;;;;5019260;28;20201;-93
2023/04/19 10:28:38;;;;;;;1.13;0.85;;;;;;;;;;5019445;28;20197;-93
2023/04/19 10:31:23;;;;;;;2.05;1.08;;;;;;;;;;5019682;28;20183;-95
2023/04/19 10:34:15;;;;;;;0.93;0.93;;;;;;;;;;5011098;28;20197;-93
2023/04/19 10:40:04;;;;;;;0.70;0.70;;;;;;;;;;5020584;28;20268;-96
2023/04/19 10:42:57;;;;;;;2.30;1.48;;;;;;;;;;5028164;28;20204;-95
2023/04/19 10:45:52;;;;;;;1.35;1.20;;;;;;;;;;5028489;28;20665;-92
2023/04/19 10:51:34;;;;;;;0.90;0.45;;;;;;;;;;5021602;28;20213;-96
2023/04/19 10:57:24;;;;;;;0.47;0.47;;;;;;;;;;5053559;22;20257;-95
2023/04/19 11:03:25;;;;;;;2.55;1.70;;;;;;;;;;5032356;28;20204;-95
2023/04/19 11:06:25;;;;;;;3.28;1.35;;;;;;;;;;5037121;28;20179;-92
2023/04/19 11:24:44;;;;;;;1.67;1.58;;;;;;;;;;5027963;28;20280;-95
2023/04/19 11:27:36;;;;;;;2.30;2.20;;;;;;;;;;4967001;29;20221;-94
2023/04/19 11:39:00;;;;;;;0.80;0.80;;;;;;;;;;5023761;28;20204;-95
2023/04/19 11:42:08;;;;;;;1.50;1.38;;;;;;;;;;5028935;28;20201;-95
2023/04/19 11:48:00;;;;;;;1.02;1.02;;;;;;;;;;5026522;28;20199;-95
2023/04/19 12:05:34;;;;;;;0.52;0.52;;;;;;;;;;5018331;28;20259;-94
2023/04/19 12:26:36;;;;;;;0.52;0.50;;;;;;;;;;5022931;28;20296;-95
2023/04/19 12:51:24;;;;;;;0.73;0.73;;;;;;;;;;5022171;28;20216;-95
2023/04/19 12:57:11;;;;;;;1.50;1.45;;;;;;;;;;5026220;28;20211;-95
2023/04/19 13:00:09;;;;;;;2.35;1.42;;;;;;;;;;5035235;28;20268;-92
2023/04/19 13:06:00;;;;;;;4.43;2.50;;;;;;;;;;5031725;28;20206;-94
2023/04/19 13:11:57;;;;;;;2.28;2.13;;;;;;;;;;5034946;28;20230;-94
2023/04/19 14:00:39;;;;;;;0.60;0.60;;;;;;;;;;6353695;22;20197;-94
2023/04/19 14:03:18;;;;;;;0.30;0.30;;;;;;;;;;6370999;22;20223;-94
2023/04/19 14:05:52;;;;;;;6.60;3.80;;;;;;;;;;6373192;22;20213;-92
2023/04/19 14:08:52;;;;;;;0.85;0.70;;;;;;;;;;6373140;22;20217;-93
2023/04/19 14:26:26;;;;;;;1.23;1.13;;;;;;;;;;5788672;22;8571933;-94
2023/04/19 14:29:40;;;;;;;1.15;1.08;;;;;;;;;;6142504;23;20178;-94
2023/04/19 14:35:14;;;;;;;1.25;1.17;;;;;;;;;;6140827;23;20215;-94
2023/04/19 14:37:58;;;;;;;0.85;0.80;;;;;;;;;;6150471;23;20166;-93
2023/04/19 14:43:46;;;;;;;1.40;1.30;;;;;;;;;;6131123;23;20216;-95
2023/04/19 15:16:38;;;;;;;1.20;1.08;;;;;;;;;;6132271;23;20174;-94
2023/04/19 15:22:39;;;;;;;;;;;;;;;;;;;;;
2023/04/19 15:28:34;;;;;;;;;;;;;;;;;;;;;
2023/04/19 15:34:27;;;;;;;0.70;0.70;;;;;;;;;;6139240;23;20232;-94
2023/04/19 16:04:16;;;;;;;0.40;0.40;;;;;;;;;;5936031;23;20189;-93
2023/04/19 16:49:02;;;;;;;1.20;0.90;;;;;;;;;;6072439;23;20224;-94
2023/04/19 17:04:41;;;;;;;2.00;1.13;;;;;;;;;;5139597;28;20525;-92
2023/04/19 17:32:26;;;;;;;3.27;1.57;;;;;;;;;;5016081;28;20200;-95
2023/04/19 17:35:35;;;;;;;2.70;2.03;;;;;;;;;;5041068;28;21080;-94
2023/04/19 17:45:01;;;;;;;;;;;;;;;;;;;;;
2023/04/19 18:14:30;;;;;;;2.23;2.03;;;;;;;;;;4977136;28;20222;-94
2023/04/19 18:17:26;;;;;;;4.37;2.57;;;;;;;;;;4973545;29;20198;-93
2023/04/19 18:20:12;;;;;;;6.13;2.90;;;;;;;;;;4975572;28;20213;-92
2023/04/19 18:38:29;;;;;;;2.80;2.60;;;;;;;;;;4938419;28;20254;-94
2023/04/19 21:14:35;;;;;;;5.77;2.23;;;;;;;;;;4985432;28;20265;-95
2023/04/19 21:20:32;;;;;;;2.17;1.90;;;;;;;;;;4983403;28;20265;-94
2023/04/19 21:26:35;;;;;;;4.17;1.97;;;;;;;;;;4984871;28;20206;-92
2023/04/19 21:32:32;;;;;;;1.90;1.47;;;;;;;;;;4983021;28;20234;-95
2023/04/19 21:35:20;;;;;;;2.17;1.47;;;;;;;;;;4981712;28;20210;-95
2023/04/19 21:38:05;;;;;;;2.00;1.90;;;;;;;;;;4983375;28;20268;-95
2023/04/19 21:49:31;;;;;;;3.13;2.33;;;;;;;;;;5003430;23;20756;-95
2023/04/19 21:52:15;;;;;;;1.83;1.73;;;;;;;;;;4985525;28;20685;-95
2023/04/19 22:04:18;;;;;;;2.47;2.20;;;;;;;;;;4984428;28;20260;-95
2023/04/19 22:07:02;;;;;;;2.63;1.90;;;;;;;;;;4984311;28;20197;-96
2023/04/19 22:13:20;;;;;;;2.23;1.47;;;;;;;;;;4963643;28;20263;-95
2023/04/19 22:19:22;;;;;;;1.90;1.80;;;;;;;;;;4947650;29;20238;-95
2023/04/19 22:30:55;;;;;;;1.40;1.13;;;;;;;;;;4965531;28;20203;-96
2023/04/19 22:47:04;;;;;;;2.03;1.83;;;;;;;;;;4946720;22;30557816;-95
2023/04/19 22:49:48;;;;;;;1.90;1.53;;;;;;;;;;6279744;22;20172;-91
2023/04/19 22:52:36;;;;;;;;;;;;;;;;;;;;;
2023/04/19 22:58:37;;;;;;;3.03;2.07;;;;;;;;;;6261291;22;20189;-92
2023/04/19 23:04:20;;;;;;;2.67;1.70;;;;;;;;;;6278060;22;20242;-94
2023/04/19 23:09:53;;;;;;;2.30;1.60;;;;;;;;;;6223419;23;20659;-94
2023/04/19 23:12:29;;;;;;;1.80;1.33;;;;;;;;;;6243864;23;20183;-93
2023/04/19 23:21:46;;;;;;;1.37;1.37;;;;;;;;;;6235472;23;20158;-94
2023/04/19 23:33:24;;;;;;;;;;;;;;;;;;;;;
2023/04/19 23:36:08;;;;;;;2.63;2.00;;;;;;;;;;6249319;23;20249;-92
2023/04/19 23:38:55;;;;;;;3.10;2.33;;;;;;;;;;6248822;23;20188;-93
2023/04/19 23:41:39;;;;;;;2.23;2.10;;;;;;;;;;6246430;23;20176;-95
2023/04/19 23:44:39;;;;;;;2.10;1.27;;;;;;;;;;6246736;23;20173;-94
2023/04/19 23:47:18;;;;;;;2.37;2.00;;;;;;;;;;6237202;23;20267;-96
2023/04/19 23:55:48;;;;;;;;;;;;;;;;;;;;;
2023/04/19 23:58:32;;;;;;;2.30;1.90;;;;;;;;;;6231739;23;20165;-94
